Relevés horaires Schaffen (Belgique)


Relevés horaires à Schaffen - Jeudi 03 Janv. 2019
Heure UTC1 Température [°C] Vent [km/h] Hum. [%] Pres.4 [hPa] Visi. [Km] Nébu. [octa] Préc.5 [mm] Cond.
2m. Res. Ros. Dir.2 Vit. Moy. Raf.3
23:00 2.7 2.7 1.5 NO 3.7 -- 5.6 92 1040.4(-0.1/3h) 12 -- -- --
22:00 3.0 3.0 1.6 NO 3.7 -- 5.6 90 1040.7(0.2/3h) 14 -- -- --
21:00 3.2 3.2 1.3 NNO 1.9 -- 7.4 87 1041(0.3/3h) 17 -- -- --
20:00 3.0 3.0 1.2 NNO 3.7 -- 7.4 88 1040.5(0.0/3h) 20 -- -- --
19:00 4.1 2.8 1.7 NO 5.6 -- 7.4 84 1040.4(0.0/3h) 20 -- -- --
18:00 4.4 4.4 1.6 NO 3.7 -- 9.3 82 1040.7(0.3/3h) 20 -- -- --
17:00 4.6 4.6 1.5 NO 3.7 -- 7.4 80 1040.5(0.5/3h) 20 -- -- --
16:00 4.8 4.8 1.2 NNO 3.7 -- 5.6 77 1040.4(0.4/3h) 20 -- -- --
15:00 5.0 3.9 1.4 NO 5.6 -- 9.3 77 1040.2(0.0/3h) 20 -- -- --
14:00 5.1 4 1.4 NO 5.6 -- 7.4 77 1040(-0.6/3h) 20 -- -- --
13:00 5.1 4 1.6 NNO 5.6 -- 7.4 78 1040(-0.9/3h) 20 -- -- --
12:00 5.0 5.0 2.2 NO 3.7 -- 7.4 82 1040.2(-0.4/3h) 20 -- -- --
11:00 4.6 4.6 2.1 NO 3.7 -- 7.4 84 1040.7(0.2/3h) 20 -- -- --
10:00 4.0 4.0 2.1 NO 3.7 -- 7.4 87 1041(0.9/3h) 20 -- -- --
09:00 3.5 3.5 1.7 ONO 3.7 -- 5.6 88 1040.9(0.9/3h) 20 -- -- --
08:00 3.2 3.2 1.5 ONO 3.7 -- 5.6 89 1040.5(0.7/3h) 15 7/8 -- --
07:00 3.2 3.2 1.5 ONO 3.7 -- 5.6 89 1040(-0.1/3h) 20 -- -- --
06:00 3.2 3.2 1.4 ONO 3.7 -- 7.4 88 1039.9(-0.6/3h) 20 -- -- --
05:00 3.4 3.4 1.2 ONO 3.7 -- 7.4 85 1039.7(-0.6/3h) 20 -- -- --
04:00 3.4 3.4 1.3 NO 3.7 -- 7.4 86 1040.2(0.0/3h) 18 -- -- --
03:00 3.7 2.4 1.2 ONO 5.6 -- 7.4 84 1040.5(0.6/3h) 19 -- -- --
02:00 3.7 3.7 1.0 ONO 3.7 -- 7.4 82 1040.5(0.7/3h) 18 -- -- --
01:00 3.7 3.7 0.8 ONO 3.7 -- 7.4 81 1040.2(0.3/3h) 18 -- -- --
00:00 3.8 2.5 0.6 NO 5.6 -- 7.4 80 1039.9(0.0/3h) 18 -- -- --

1 Coordinated Universal Time. Actuellement il est 11:00 locale et 09:00 UTC.

2 Le vent souffle depuis la direction indiquée vers la direction oposée.

3 Les rafales max. sont disponible 40 min après l'heure du relevé.

4 Pour les stations d'altitude (plus de 600m) le géopotentiel du niveau le plus proche de la pression obligatoire est indiqué.

5 Les stations disposant d'un diffuseur peuvent indiquer "trace". Cela signifie que des précipitations ont touchés le sol mais que la quantité est inférieure à 0.1 mm.

Récapitulatif de la journée
Température [°C] Vent [km/h] Ensoleillement4 [h] Precipitations totale5 [mm] Pression [Hpa]
Min1 Max.2 Moy.3 Max. Min Max.
2.7 5.8 0 9.3 0 h 0 min 0 1039.7 1041.0

1 Température minimale relevée entre 18:00 UTC la veille et 18:00 UTC le jour donné.

2 Température maximale relevée entre 06:00 UTC le jour donné et 06:00 UTC le lendemain.

3 Vent moyen de la journée basé sur les relevés horaires.

4 Ensoleillement en heures relevé entre 06:00 UTC la veille et 06:00 UTC le jour donné.

5 Précipitations totales tombées entre 06:00 UTC la jour donné et 06:00 UTC le lendemain.

Graphiques horaires